createdAt,value
2023-05-20T00:00:31.219Z,95308.94
2023-05-20T00:03:00.228Z,95307.91
2023-05-20T00:05:27.121Z,95306.88
2023-05-20T00:07:53.895Z,95308.72
2023-05-20T00:10:20.666Z,95305.06
2023-05-20T00:12:47.419Z,95303.44
2023-05-20T00:15:16.626Z,95306.09
2023-05-20T00:17:45.883Z,95307.72
2023-05-20T00:20:12.906Z,95305.06
2023-05-20T00:22:41.905Z,95303.22
2023-05-20T00:25:09.129Z,95305.66
2023-05-20T00:27:38.068Z,95298.56
2023-05-20T00:30:07.510Z,95296.13
2023-05-20T00:32:34.909Z,95288.38
2023-05-20T00:35:03.820Z,95289.22
2023-05-20T00:37:30.634Z,95291.63
2023-05-20T00:39:59.536Z,95292.44
2023-05-20T00:42:28.304Z,95283.69
2023-05-20T00:44:59.834Z,95280.25
2023-05-20T00:47:32.296Z,95279.22
2023-05-20T00:49:59.014Z,95276.59
2023-05-20T00:52:25.820Z,95278.63
2023-05-20T00:54:52.710Z,95278.63
2023-05-20T00:57:22.015Z,95273.34
2023-05-20T00:59:51.338Z,95264.41
2023-05-20T01:02:22.913Z,95262.78
2023-05-20T01:04:49.800Z,95266.44
2023-05-20T01:07:19.188Z,95274.16
2023-05-20T01:09:50.568Z,95271.50
2023-05-20T01:12:20.977Z,95271.72
2023-05-20T01:15:03.976Z,95282.06
2023-05-20T01:17:33.136Z,95281.06
2023-05-20T01:20:03.910Z,95283.91
2023-05-20T01:22:30.590Z,95284.72
2023-05-20T01:24:57.422Z,95278.63
2023-05-20T01:27:28.913Z,95272.53
2023-05-20T01:29:58.228Z,95277.63
2023-05-20T01:32:49.535Z,95287.16
2023-05-20T01:35:16.662Z,95277.63
2023-05-20T01:37:45.636Z,95285.53
2023-05-20T01:40:15.096Z,95279.44
2023-05-20T01:42:45.558Z,95270.50
2023-05-20T01:45:12.456Z,95278.63
2023-05-20T01:47:41.360Z,95280.25
2023-05-20T01:50:11.862Z,95274.16
2023-05-20T01:52:40.701Z,95270.72
2023-05-20T01:55:07.533Z,95273.94
2023-05-20T01:57:38.954Z,95271.31
2023-05-20T02:00:07.020Z,95259.13
2023-05-20T02:02:33.898Z,95267.25
2023-05-20T02:05:00.853Z,95268.06
2023-05-20T02:07:29.713Z,95273.34
2023-05-20T02:09:58.787Z,95264.41
2023-05-20T02:12:25.728Z,95258.53
2023-05-20T02:14:52.452Z,95250.59
2023-05-20T02:17:19.571Z,95260.34
2023-05-20T02:19:47.067Z,95266.03
2023-05-20T02:22:14.370Z,95274.78
2023-05-20T02:24:43.249Z,95259.13
2023-05-20T02:27:12.134Z,95261.75
2023-05-20T02:29:38.815Z,95264.41
2023-05-20T02:32:05.791Z,95256.66
2023-05-20T02:34:33.004Z,95264.41
2023-05-20T02:36:59.878Z,95249.56
2023-05-20T02:39:28.766Z,95257.50
2023-05-20T02:41:57.640Z,95253.81
2023-05-20T02:44:24.533Z,95258.28
2023-05-20T02:46:53.496Z,95258.28
2023-05-20T02:49:24.928Z,95252.22
2023-05-20T02:51:56.555Z,95248.97
2023-05-20T02:54:25.521Z,95254.84
2023-05-20T02:56:55.361Z,95251.38
2023-05-20T02:59:21.982Z,95249.56
2023-05-20T03:01:48.710Z,95254.03
2023-05-20T03:04:19.380Z,95257.50
2023-05-20T03:06:49.281Z,95257.50
2023-05-20T03:09:18.876Z,95264.81
2023-05-20T03:11:48.254Z,95261.16
2023-05-20T03:14:17.391Z,95262.19
2023-05-20T03:16:44.241Z,95270.91
2023-05-20T03:19:16.474Z,95275.41
2023-05-20T03:21:43.918Z,95279.84
2023-05-20T03:24:13.003Z,95278.84
2023-05-20T03:26:43.307Z,95277.00
2023-05-20T03:29:12.507Z,95282.31
2023-05-20T03:31:41.705Z,95276.19
2023-05-20T03:34:08.433Z,95277.00
2023-05-20T03:36:37.912Z,95280.69
2023-05-20T03:39:07.486Z,95280.09
2023-05-20T03:41:35.044Z,95284.34
2023-05-20T03:44:01.779Z,95284.34
2023-05-20T03:46:32.648Z,95288.81
2023-05-20T03:48:59.383Z,95294.09
2023-05-20T03:51:26.083Z,95300.59
2023-05-20T03:53:54.940Z,95295.75
2023-05-20T03:56:24.671Z,95292.94
2023-05-20T03:58:53.582Z,95299.44
2023-05-20T04:01:21.290Z,95298.25
2023-05-20T04:03:48.191Z,95304.97
2023-05-20T04:06:17.645Z,95308.81
2023-05-20T04:08:47.142Z,95308.41
2023-05-20T04:11:16.076Z,95308.41
2023-05-20T04:13:45.041Z,95311.25
2023-05-20T04:16:16.885Z,95316.13
2023-05-20T04:18:46.124Z,95313.91
2023-05-20T04:21:15.022Z,95314.69
2023-05-20T04:23:44.074Z,95322.38
2023-05-20T04:26:10.872Z,95307.16
2023-05-20T04:28:41.976Z,95304.50
2023-05-20T04:31:11.874Z,95310.81
2023-05-20T04:33:43.292Z,95307.56
2023-05-20T04:36:13.168Z,95313.25
2023-05-20T04:38:42.029Z,95311.59
2023-05-20T04:41:11.040Z,95310.97
2023-05-20T04:43:39.673Z,95320.91
2023-05-20T04:46:09.886Z,95326.59
2023-05-20T04:48:39.114Z,95314.84
2023-05-20T04:51:10.617Z,95324.97
2023-05-20T04:53:43.186Z,95322.09
2023-05-20T04:56:15.707Z,95325.38
2023-05-20T04:58:47.097Z,95311.97
2023-05-20T05:01:16.424Z,95317.06
2023-05-20T05:03:45.255Z,95317.25
2023-05-20T05:06:14.184Z,95315.22
2023-05-20T05:08:40.966Z,95317.25
2023-05-20T05:11:11.192Z,95322.50
2023-05-20T05:13:43.147Z,95326.16
2023-05-20T05:16:15.113Z,95331.44
2023-05-20T05:18:46.847Z,95317.25
2023-05-20T05:21:13.576Z,95317.25
2023-05-20T05:23:42.585Z,95320.88
2023-05-20T05:26:09.464Z,95313.38
2023-05-20T05:28:36.054Z,95316.44
2023-05-20T05:31:05.832Z,95313.22
2023-05-20T05:33:32.572Z,95311.97
2023-05-20T05:36:01.176Z,95312.41
2023-05-20T05:38:27.897Z,95305.50
2023-05-20T05:40:54.725Z,95305.09
2023-05-20T05:43:21.421Z,95303.06
2023-05-20T05:45:52.827Z,95306.31
2023-05-20T05:48:19.598Z,95315.06
2023-05-20T05:50:47.690Z,95311.44
2023-05-20T05:53:16.737Z,95310.41
2023-05-20T05:55:45.549Z,95307.97
2023-05-20T05:58:12.545Z,95307.56
2023-05-20T06:00:41.474Z,95304.28
2023-05-20T06:03:10.475Z,95304.28
2023-05-20T06:05:37.380Z,95300.63
2023-05-20T06:08:08.894Z,95291.72
2023-05-20T06:10:38.449Z,95292.91
2023-05-20T06:13:07.448Z,95287.25
2023-05-20T06:15:36.568Z,95287.06
2023-05-20T06:18:06.450Z,95285.22
2023-05-20T06:20:33.245Z,95294.13
2023-05-20T06:23:02.479Z,95294.13
2023-05-20T06:25:29.190Z,95288.47
2023-05-20T06:27:58.514Z,95289.28
2023-05-20T06:30:25.260Z,95285.63
2023-05-20T06:32:54.243Z,95283.19
2023-05-20T06:35:23.174Z,95274.28
2023-05-20T06:37:55.405Z,95267.16
2023-05-20T06:40:27.368Z,95262.72
2023-05-20T06:42:56.643Z,95261.31
2023-05-20T06:45:25.550Z,95261.72
2023-05-20T06:47:54.588Z,95256.03
2023-05-20T06:50:21.562Z,95253.59
2023-05-20T06:52:50.392Z,95254.41
2023-05-20T06:55:17.404Z,95258.25
2023-05-20T06:57:46.413Z,95262.75
2023-05-20T07:00:16.525Z,95271.03
2023-05-20T07:02:43.761Z,95266.16
2023-05-20T07:05:13.753Z,95265.75
2023-05-20T07:07:40.886Z,95269.03
2023-05-20T07:10:08.379Z,95267.00
2023-05-20T07:12:40.316Z,95259.25
2023-05-20T07:15:07.748Z,95264.94
2023-05-20T07:17:34.401Z,95256.81
2023-05-20T07:20:01.154Z,95256.00
2023-05-20T07:22:32.566Z,95256.78
2023-05-20T07:25:01.625Z,95249.28
2023-05-20T07:27:28.352Z,95256.19
2023-05-20T07:29:57.496Z,95254.97
2023-05-20T07:32:24.315Z,95241.94
2023-05-20T07:34:56.110Z,95247.81
2023-05-20T07:37:22.764Z,95243.97
2023-05-20T07:39:49.673Z,95253.09
2023-05-20T07:42:16.549Z,95266.50
2023-05-20T07:44:49.056Z,95263.25
2023-05-20T07:47:20.429Z,95264.03
2023-05-20T07:49:49.465Z,95256.72
2023-05-20T07:52:18.389Z,95249.63
2023-05-20T07:54:45.018Z,95251.25
2023-05-20T07:57:13.888Z,95247.00
2023-05-20T07:59:43.271Z,95255.91
2023-05-20T08:02:10.179Z,95249.81
2023-05-20T08:04:42.253Z,95248.19
2023-05-20T08:07:09.099Z,95248.56
2023-05-20T08:09:38.859Z,95246.72
2023-05-20T08:12:05.923Z,95247.75
2023-05-20T08:14:34.960Z,95246.34
2023-05-20T08:17:03.877Z,95248.16
2023-05-20T08:19:35.238Z,95240.63
2023-05-20T08:22:06.120Z,95249.56
2023-05-20T08:24:35.623Z,95241.63
2023-05-20T08:27:02.391Z,95236.34
2023-05-20T08:29:31.506Z,95241.63
2023-05-20T08:32:00.884Z,95231.50
2023-05-20T08:34:27.678Z,95240.03
2023-05-20T08:36:54.360Z,95238.41
2023-05-20T08:39:21.087Z,95232.69
2023-05-20T08:41:48.448Z,95233.69
2023-05-20T08:44:17.384Z,95222.88
2023-05-20T08:46:44.322Z,95234.06
2023-05-20T08:49:11.013Z,95233.69
2023-05-20T08:51:42.960Z,95236.53
2023-05-20T08:54:09.665Z,95244.84
2023-05-20T08:56:41.083Z,95244.59
2023-05-20T08:59:10.493Z,95253.72
2023-05-20T09:01:41.362Z,95237.88
2023-05-20T09:04:08.448Z,95236.25
2023-05-20T09:06:45.395Z,95228.38
2023-05-20T09:09:13.335Z,95225.28
2023-05-20T09:11:41.546Z,95223.66
2023-05-20T09:14:08.547Z,95220.44
2023-05-20T09:16:35.747Z,95222.66
2023-05-20T09:19:05.219Z,95211.03
2023-05-20T09:21:39.045Z,95205.75
2023-05-20T09:24:06.606Z,95198.03
2023-05-20T09:26:33.466Z,95195.00
2023-05-20T09:29:00.920Z,95200.03
2023-05-20T09:31:33.928Z,95208.56
2023-05-20T09:34:01.320Z,95199.84
2023-05-20T09:36:35.180Z,95199.66
2023-05-20T09:39:03.885Z,95204.94
2023-05-20T09:41:37.304Z,95197.59
2023-05-20T09:44:04.190Z,95192.91
2023-05-20T09:46:49.802Z,95196.34
2023-05-20T09:49:16.733Z,95193.50
2023-05-20T09:51:48.646Z,95179.84
2023-05-20T09:54:15.512Z,95184.09
2023-05-20T09:56:42.470Z,95180.63
2023-05-20T09:59:09.186Z,95179.59
2023-05-20T10:01:36.225Z,95177.44
2023-05-20T10:04:05.420Z,95176.66
2023-05-20T10:06:50.545Z,95168.31
2023-05-20T10:09:31.478Z,95175.22
2023-05-20T10:12:14.888Z,95172.38
2023-05-20T10:15:20.953Z,95164.66
2023-05-20T10:17:54.354Z,95141.09
2023-05-20T10:20:23.525Z,95156.97
2023-05-20T10:23:00.938Z,95154.09
2023-05-20T10:25:34.039Z,95142.31
2023-05-20T10:28:08.728Z,95144.97
2023-05-20T10:30:36.521Z,95149.22
2023-05-20T10:33:05.859Z,95146.81
2023-05-20T10:35:32.775Z,95146.00
2023-05-20T10:38:12.804Z,95134.19
2023-05-20T10:40:40.926Z,95130.91
2023-05-20T10:43:15.306Z,95132.09
2023-05-20T10:45:53.831Z,95113.00
2023-05-20T10:48:22.068Z,95109.13
2023-05-20T10:50:51.589Z,95123.19
2023-05-20T10:53:29.752Z,95114.28
2023-05-20T10:56:01.004Z,95109.41
2023-05-20T10:58:28.543Z,95108.59
2023-05-20T11:00:57.577Z,95108.19
2023-05-20T11:03:24.596Z,95101.31
2023-05-20T11:05:52.055Z,95109.22
2023-05-20T11:08:27.706Z,95098.06
2023-05-20T11:10:57.304Z,95095.66
2023-05-20T11:13:24.089Z,95088.97
2023-05-20T11:15:52.960Z,95088.38
2023-05-20T11:18:21.943Z,95089.97
2023-05-20T11:20:48.814Z,95089.97
2023-05-20T11:23:15.773Z,95093.66
2023-05-20T11:25:42.714Z,95081.91
2023-05-20T11:28:15.815Z,95085.53
2023-05-20T11:30:43.868Z,95080.69
2023-05-20T11:33:12.788Z,95071.72
2023-05-20T11:36:06.530Z,95059.53
2023-05-20T11:38:39.673Z,95061.38
2023-05-20T11:41:08.579Z,95061.16
2023-05-20T11:43:35.418Z,95061.97
2023-05-20T11:46:05.188Z,95055.28
2023-05-20T11:48:34.204Z,95050.22
2023-05-20T11:51:03.275Z,95049.41
2023-05-20T11:53:30.312Z,95059.97
2023-05-20T11:55:59.316Z,95054.06
2023-05-20T11:58:29.664Z,95049.81
2023-05-20T12:01:05.129Z,95050.59
2023-05-20T12:03:40.662Z,95047.75
2023-05-20T12:06:10.295Z,95043.13
2023-05-20T12:08:37.132Z,95039.88
2023-05-20T12:11:04.045Z,95056.13
2023-05-20T12:13:35.092Z,95048.19
2023-05-20T12:16:06.172Z,95051.88
2023-05-20T12:18:35.655Z,95046.56
2023-05-20T12:21:04.508Z,95051.09
2023-05-20T12:23:34.130Z,95056.53
2023-05-20T12:26:05.718Z,95084.59
2023-05-20T12:28:34.643Z,95090.88
2023-05-20T12:31:02.361Z,95089.06
2023-05-20T12:33:29.170Z,95104.69
2023-05-20T12:36:14.684Z,95104.69
2023-05-20T12:38:41.441Z,95112.00
2023-05-20T12:41:08.280Z,95096.53
2023-05-20T12:43:37.067Z,95111.59
2023-05-20T12:46:04.138Z,95109.97
2023-05-20T12:48:30.986Z,95112.63
2023-05-20T12:50:57.770Z,95107.34
2023-05-20T12:53:26.798Z,95094.13
2023-05-20T12:55:53.756Z,95101.44
2023-05-20T12:58:22.849Z,95092.50
2023-05-20T13:00:49.905Z,95089.06
2023-05-20T13:03:16.860Z,95090.28
2023-05-20T13:05:45.970Z,95090.28
2023-05-20T13:08:14.965Z,95068.53
2023-05-20T13:10:44.097Z,95061.25
2023-05-20T13:13:14.017Z,95046.22
2023-05-20T13:15:43.519Z,95046.22
2023-05-20T13:18:12.781Z,95049.91
2023-05-20T13:20:41.842Z,95053.13
2023-05-20T13:23:13.210Z,95056.78
2023-05-20T13:25:42.125Z,95044.63
2023-05-20T13:28:12.653Z,95048.28
2023-05-20T13:30:40.018Z,95055.97
2023-05-20T13:33:09.231Z,95067.38
2023-05-20T13:35:38.631Z,95057.59
2023-05-20T13:38:05.359Z,95055.78
2023-05-20T13:40:32.109Z,95043.00
2023-05-20T13:43:03.547Z,95046.44
2023-05-20T13:45:34.902Z,95044.63
2023-05-20T13:48:01.720Z,95047.25
2023-05-20T13:50:31.367Z,95035.28
2023-05-20T13:52:58.200Z,95035.66
2023-05-20T13:55:27.226Z,95035.06
2023-05-20T13:57:54.472Z,95030.81
2023-05-20T14:00:21.832Z,95025.53
2023-05-20T14:02:51.557Z,95014.97
2023-05-20T14:05:18.986Z,95020.25
2023-05-20T14:07:45.762Z,95005.19
2023-05-20T14:10:12.643Z,95013.13
2023-05-20T14:12:48.006Z,94999.13
2023-05-20T14:15:14.926Z,95004.41
2023-05-20T14:17:43.846Z,94986.72
2023-05-20T14:20:11.117Z,94996.25
2023-05-20T14:22:37.938Z,94995.44
2023-05-20T14:25:05.126Z,95000.72
2023-05-20T14:27:34.004Z,95001.75
2023-05-20T14:30:03.126Z,94996.28
2023-05-20T14:32:32.090Z,94998.72
2023-05-20T14:35:00.938Z,94999.13
2023-05-20T14:37:28.210Z,94996.47
2023-05-20T14:39:55.391Z,94993.41
2023-05-20T14:42:24.624Z,94995.00
2023-05-20T14:44:53.552Z,94990.75
2023-05-20T14:47:22.338Z,94993.56
2023-05-20T14:49:50.147Z,94999.88
2023-05-20T14:52:20.375Z,94993.41
2023-05-20T14:54:49.331Z,94989.16
2023-05-20T14:57:20.749Z,94983.63
2023-05-20T14:59:56.408Z,94981.66
2023-05-20T15:02:25.695Z,94985.69
2023-05-20T15:04:54.675Z,94988.56
2023-05-20T15:07:21.483Z,94988.56
2023-05-20T15:09:51.300Z,94990.97
2023-05-20T15:12:20.210Z,94993.59
2023-05-20T15:14:46.924Z,94995.88
2023-05-20T15:17:13.751Z,94993.25
2023-05-20T15:19:45.192Z,94994.25
2023-05-20T15:22:11.884Z,94991.00
2023-05-20T15:24:40.765Z,94985.72
2023-05-20T15:27:13.399Z,94984.53
2023-05-20T15:29:42.223Z,94980.28
2023-05-20T15:32:09.392Z,94986.59
2023-05-20T15:34:36.639Z,94977.22
2023-05-20T15:37:03.389Z,94968.50
2023-05-20T15:39:30.158Z,94979.22
2023-05-20T15:41:59.483Z,94973.72
2023-05-20T15:44:29.247Z,94976.97
2023-05-20T15:46:56.352Z,94977.13
2023-05-20T15:49:25.278Z,94968.22
2023-05-20T15:52:11.941Z,94974.91
2023-05-20T15:54:38.719Z,94973.88
2023-05-20T15:57:05.668Z,94976.91
2023-05-20T15:59:37.039Z,94977.72
2023-05-20T16:02:03.899Z,94972.66
2023-05-20T16:04:30.769Z,94978.72
2023-05-20T16:06:57.505Z,94975.06
2023-05-20T16:09:26.394Z,94976.09
2023-05-20T16:11:56.268Z,94975.88
2023-05-20T16:14:25.273Z,94981.97
2023-05-20T16:16:54.500Z,94967.78
2023-05-20T16:19:24.009Z,94978.91
2023-05-20T16:21:50.916Z,94979.50
2023-05-20T16:24:18.154Z,94979.72
2023-05-20T16:26:47.040Z,94974.22
2023-05-20T16:29:16.304Z,94968.34
2023-05-20T16:31:47.109Z,94967.50
2023-05-20T16:34:19.181Z,94972.16
2023-05-20T16:36:46.477Z,94979.88
2023-05-20T16:39:16.587Z,94975.00
2023-05-20T16:41:45.606Z,94978.22
2023-05-20T16:44:12.275Z,94982.31
2023-05-20T16:46:41.414Z,94984.78
2023-05-20T16:49:08.354Z,94974.22
2023-05-20T16:51:37.277Z,94987.63
2023-05-20T16:54:06.113Z,94987.81
2023-05-20T16:56:35.376Z,94975.84
2023-05-20T16:59:04.819Z,94989.47
2023-05-20T17:01:34.013Z,94985.56
2023-05-20T17:04:00.865Z,94997.75
2023-05-20T17:06:27.762Z,94987.19
2023-05-20T17:08:57.189Z,94995.69
2023-05-20T17:11:28.630Z,94997.75
2023-05-20T17:13:57.736Z,94988.03
2023-05-20T17:16:24.566Z,94993.31
2023-05-20T17:18:53.821Z,94998.19
2023-05-20T17:21:20.787Z,94999.81
2023-05-20T17:23:47.742Z,95004.66
2023-05-20T17:26:14.525Z,95009.34
2023-05-20T17:28:45.790Z,95016.47
2023-05-20T17:31:13.440Z,95011.97
2023-05-20T17:33:40.343Z,95002.00
2023-05-20T17:36:09.435Z,95002.44
2023-05-20T17:38:36.210Z,95006.72
2023-05-20T17:41:02.975Z,95013.25
2023-05-20T17:43:31.840Z,95014.88
2023-05-20T17:46:04.053Z,95023.41
2023-05-20T17:48:32.962Z,95028.69
2023-05-20T17:50:59.684Z,95025.00
2023-05-20T17:53:31.101Z,95022.56
2023-05-20T17:55:57.891Z,95018.94
2023-05-20T17:58:26.857Z,95028.69
2023-05-20T18:00:58.697Z,95033.97
2023-05-20T18:03:26.438Z,95032.34
2023-05-20T18:05:56.111Z,95033.38
2023-05-20T18:08:25.294Z,95032.34
2023-05-20T18:10:52.402Z,95028.72
2023-05-20T18:13:19.295Z,95035.38
2023-05-20T18:15:48.198Z,95034.41
2023-05-20T18:18:17.128Z,95036.00
2023-05-20T18:20:48.775Z,95027.47
2023-05-20T18:23:17.717Z,95032.75
2023-05-20T18:25:44.560Z,95036.41
2023-05-20T18:28:13.463Z,95029.94
2023-05-20T18:30:42.894Z,95027.09
2023-05-20T18:33:10.182Z,95027.47
2023-05-20T18:35:39.361Z,95027.47
2023-05-20T18:38:06.100Z,95027.47
2023-05-20T18:40:35.184Z,95031.13
2023-05-20T18:43:02.018Z,95031.13
2023-05-20T18:45:30.918Z,95025.88
2023-05-20T18:47:59.986Z,95048.59
2023-05-20T18:50:29.048Z,95043.69
2023-05-20T18:52:57.946Z,95054.69
2023-05-20T18:55:24.681Z,95054.06
2023-05-20T18:57:54.206Z,95057.50
2023-05-20T19:00:21.132Z,95059.97
2023-05-20T19:02:48.515Z,95058.34
2023-05-20T19:05:20.504Z,95054.69
2023-05-20T19:07:47.229Z,95057.13
2023-05-20T19:10:15.246Z,95049.41
2023-05-20T19:12:46.967Z,95061.16
2023-05-20T19:15:15.790Z,95062.00
2023-05-20T19:17:42.776Z,95063.81
2023-05-20T19:20:10.512Z,95071.72
2023-05-20T19:22:39.383Z,95073.00
2023-05-20T19:25:06.528Z,95080.25
2023-05-20T19:27:33.304Z,95081.91
2023-05-20T19:30:00.153Z,95079.06
2023-05-20T19:32:32.058Z,95080.25
2023-05-20T19:34:58.949Z,95073.34
2023-05-20T19:37:25.731Z,95066.03
2023-05-20T19:39:55.049Z,95069.69
2023-05-20T19:42:23.979Z,95072.94
2023-05-20T19:44:53.839Z,95076.19
2023-05-20T19:47:22.991Z,95074.91
2023-05-20T19:49:49.777Z,95074.13
2023-05-20T19:52:17.586Z,95075.75
2023-05-20T19:54:46.427Z,95075.94
2023-05-20T19:57:13.218Z,95075.75
2023-05-20T19:59:42.079Z,95077.56
2023-05-20T20:02:14.808Z,95078.38
2023-05-20T20:04:44.177Z,95075.75
2023-05-20T20:07:11.798Z,95074.56
2023-05-20T20:09:40.804Z,95077.34
2023-05-20T20:12:10.162Z,95081.84
2023-05-20T20:14:39.370Z,95075.75
2023-05-20T20:17:06.256Z,95076.56
2023-05-20T20:19:34.120Z,95063.34
2023-05-20T20:22:00.897Z,95046.22
2023-05-20T20:24:27.549Z,95039.34
2023-05-20T20:26:54.406Z,95031.25
2023-05-20T20:29:26.941Z,95031.25
2023-05-20T20:31:54.821Z,95033.91
2023-05-20T20:34:24.133Z,95037.56
2023-05-20T20:36:53.422Z,95042.25
2023-05-20T20:39:20.199Z,95037.97
2023-05-20T20:41:50.132Z,95032.28
2023-05-20T20:44:23.294Z,95030.66
2023-05-20T20:46:52.822Z,95022.19
2023-05-20T20:49:19.722Z,95034.22
2023-05-20T20:51:46.887Z,95029.19
2023-05-20T20:54:15.796Z,95022.69
2023-05-20T20:56:47.226Z,95017.41
2023-05-20T20:59:16.197Z,95017.69
2023-05-20T21:01:43.014Z,95012.19
2023-05-20T21:04:09.892Z,95013.78
2023-05-20T21:06:41.243Z,95002.00
2023-05-20T21:09:08.595Z,95010.09
2023-05-20T21:11:38.373Z,95027.16
2023-05-20T21:14:05.279Z,95018.78
2023-05-20T21:16:34.229Z,95018.34
2023-05-20T21:19:03.251Z,95018.75
2023-05-20T21:21:32.485Z,95015.06
2023-05-20T21:24:01.407Z,95005.94
2023-05-20T21:26:28.127Z,95009.94
2023-05-20T21:28:54.930Z,95009.56
2023-05-20T21:31:24.509Z,95006.69
2023-05-20T21:33:52.046Z,95003.03
2023-05-20T21:36:18.800Z,95005.47
2023-05-20T21:38:47.631Z,94992.91
2023-05-20T21:41:16.431Z,95006.88
2023-05-20T21:43:45.515Z,95004.59
2023-05-20T21:46:14.487Z,95007.03
2023-05-20T21:48:41.322Z,95001.75
2023-05-20T21:51:07.996Z,94990.53
2023-05-20T21:53:36.956Z,94986.63
2023-05-20T21:56:03.728Z,94990.91
2023-05-20T21:58:30.683Z,94991.50
2023-05-20T22:01:00.011Z,94996.78
2023-05-20T22:03:29.798Z,94981.78
2023-05-20T22:05:58.912Z,94998.41
2023-05-20T22:08:27.889Z,94992.09
2023-05-20T22:10:56.800Z,94985.78
2023-05-20T22:13:26.111Z,94985.34
2023-05-20T22:15:55.691Z,94981.66
2023-05-20T22:18:25.176Z,94975.22
2023-05-20T22:20:51.825Z,94977.78
2023-05-20T22:23:18.632Z,94979.59
2023-05-20T22:25:47.486Z,94978.00
2023-05-20T22:28:16.893Z,94965.38
2023-05-20T22:30:46.366Z,94970.25
2023-05-20T22:33:13.500Z,94967.59
2023-05-20T22:35:42.884Z,94953.56
2023-05-20T22:38:13.892Z,94964.94
2023-05-20T22:40:42.772Z,94958.63
2023-05-20T22:43:13.205Z,94954.13
2023-05-20T22:45:42.240Z,94958.41
2023-05-20T22:48:12.476Z,94956.00
2023-05-20T22:50:41.809Z,94952.06
2023-05-20T22:53:08.580Z,94957.75
2023-05-20T22:55:38.826Z,94958.78
2023-05-20T22:58:07.680Z,94955.09
2023-05-20T23:00:37.189Z,94946.13
2023-05-20T23:03:06.316Z,94951.44
2023-05-20T23:05:33.196Z,94948.56
2023-05-20T23:07:59.883Z,94938.00
2023-05-20T23:10:31.266Z,94929.84
2023-05-20T23:13:04.236Z,94926.97
2023-05-20T23:15:33.699Z,94923.38
2023-05-20T23:18:02.612Z,94920.91
2023-05-20T23:20:29.671Z,94920.06
2023-05-20T23:23:01.526Z,94919.25
2023-05-20T23:25:32.566Z,94912.72
2023-05-20T23:28:01.514Z,94915.38
2023-05-20T23:30:28.230Z,94911.94
2023-05-20T23:32:58.154Z,94901.34
2023-05-20T23:35:27.153Z,94900.53
2023-05-20T23:37:56.021Z,94892.03
2023-05-20T23:40:22.914Z,94895.63
2023-05-20T23:42:49.617Z,94895.63
2023-05-20T23:45:18.649Z,94887.09
2023-05-20T23:47:47.582Z,94880.56
2023-05-20T23:50:14.435Z,94885.03
2023-05-20T23:52:43.438Z,94878.94
2023-05-20T23:55:10.387Z,94874.47
2023-05-20T23:57:37.025Z,94871.25
